sensor_id;sensor_type;location;lat;lon;timestamp;P1;durP1;ratioP1;P2;durP2;ratioP2
17079;SDS011;8655;57.106;-2.088;2023-06-14T00:01:54;2.88;;;2.40;;
17079;SDS011;8655;57.106;-2.088;2023-06-14T00:04:20;2.88;;;2.30;;
17079;SDS011;8655;57.106;-2.088;2023-06-14T00:06:46;2.40;;;2.20;;
17079;SDS011;8655;57.106;-2.088;2023-06-14T00:09:13;2.53;;;2.33;;
17079;SDS011;8655;57.106;-2.088;2023-06-14T00:11:42;2.72;;;2.53;;
17079;SDS011;8655;57.106;-2.088;2023-06-14T00:14:08;2.25;;;2.05;;
17079;SDS011;8655;57.106;-2.088;2023-06-14T00:16:34;2.65;;;2.38;;
17079;SDS011;8655;57.106;-2.088;2023-06-14T00:19:00;3.10;;;2.38;;
17079;SDS011;8655;57.106;-2.088;2023-06-14T00:21:28;2.45;;;2.25;;
17079;SDS011;8655;57.106;-2.088;2023-06-14T00:23:54;2.63;;;2.42;;
17079;SDS011;8655;57.106;-2.088;2023-06-14T00:26:21;2.55;;;2.33;;
17079;SDS011;8655;57.106;-2.088;2023-06-14T00:28:46;3.03;;;2.40;;
17079;SDS011;8655;57.106;-2.088;2023-06-14T00:31:12;2.30;;;2.10;;
17079;SDS011;8655;57.106;-2.088;2023-06-14T00:33:37;2.30;;;2.10;;
17079;SDS011;8655;57.106;-2.088;2023-06-14T00:36:03;2.30;;;2.10;;
17079;SDS011;8655;57.106;-2.088;2023-06-14T00:38:29;2.25;;;2.05;;
17079;SDS011;8655;57.106;-2.088;2023-06-14T00:40:55;2.35;;;2.15;;
17079;SDS011;8655;57.106;-2.088;2023-06-14T00:43:20;2.65;;;2.10;;
17079;SDS011;8655;57.106;-2.088;2023-06-14T00:45:46;2.38;;;2.17;;
17079;SDS011;8655;57.106;-2.088;2023-06-14T00:48:11;2.40;;;2.20;;
17079;SDS011;8655;57.106;-2.088;2023-06-14T00:50:38;2.50;;;2.30;;
17079;SDS011;8655;57.106;-2.088;2023-06-14T00:53:05;2.75;;;2.20;;
17079;SDS011;8655;57.106;-2.088;2023-06-14T00:55:31;2.30;;;2.10;;
17079;SDS011;8655;57.106;-2.088;2023-06-14T00:57:58;2.28;;;2.08;;
17079;SDS011;8655;57.106;-2.088;2023-06-14T01:00:23;2.70;;;2.17;;
17079;SDS011;8655;57.106;-2.088;2023-06-14T01:02:49;2.38;;;2.17;;
17079;SDS011;8655;57.106;-2.088;2023-06-14T01:05:15;2.42;;;2.15;;
17079;SDS011;8655;57.106;-2.088;2023-06-14T01:15:47;2.38;;;2.17;;
17079;SDS011;8655;57.106;-2.088;2023-06-14T01:18:13;2.25;;;2.05;;
17079;SDS011;8655;57.106;-2.088;2023-06-14T01:20:45;3.92;;;2.28;;
17079;SDS011;8655;57.106;-2.088;2023-06-14T01:23:18;2.50;;;2.13;;
17079;SDS011;8655;57.106;-2.088;2023-06-14T01:25:45;2.63;;;2.40;;
17079;SDS011;8655;57.106;-2.088;2023-06-14T01:28:11;2.40;;;2.20;;
17079;SDS011;8655;57.106;-2.088;2023-06-14T01:30:41;2.50;;;2.30;;
17079;SDS011;8655;57.106;-2.088;2023-06-14T01:33:16;2.50;;;2.25;;
17079;SDS011;8655;57.106;-2.088;2023-06-14T01:35:46;2.53;;;2.30;;
17079;SDS011;8655;57.106;-2.088;2023-06-14T01:38:13;2.50;;;2.30;;
17079;SDS011;8655;57.106;-2.088;2023-06-14T01:40:39;2.45;;;2.22;;
17079;SDS011;8655;57.106;-2.088;2023-06-14T01:43:07;2.67;;;2.30;;
17079;SDS011;8655;57.106;-2.088;2023-06-14T01:45:34;2.28;;;2.08;;
17079;SDS011;8655;57.106;-2.088;2023-06-14T01:48:01;2.33;;;2.00;;
17079;SDS011;8655;57.106;-2.088;2023-06-14T01:50:29;2.45;;;2.25;;
17079;SDS011;8655;57.106;-2.088;2023-06-14T01:52:55;2.58;;;2.17;;
17079;SDS011;8655;57.106;-2.088;2023-06-14T01:55:21;2.30;;;2.05;;
17079;SDS011;8655;57.106;-2.088;2023-06-14T01:57:47;2.30;;;2.10;;
17079;SDS011;8655;57.106;-2.088;2023-06-14T02:00:13;2.05;;;1.92;;
17079;SDS011;8655;57.106;-2.088;2023-06-14T02:02:41;3.08;;;2.22;;
17079;SDS011;8655;57.106;-2.088;2023-06-14T02:05:06;2.95;;;2.65;;
17079;SDS011;8655;57.106;-2.088;2023-06-14T02:07:34;2.42;;;2.22;;
17079;SDS011;8655;57.106;-2.088;2023-06-14T02:09:59;2.40;;;2.20;;
17079;SDS011;8655;57.106;-2.088;2023-06-14T02:12:25;2.83;;;2.50;;
17079;SDS011;8655;57.106;-2.088;2023-06-14T02:14:51;2.33;;;2.05;;
17079;SDS011;8655;57.106;-2.088;2023-06-14T02:17:16;2.58;;;2.38;;
17079;SDS011;8655;57.106;-2.088;2023-06-14T02:19:42;2.55;;;2.33;;
17079;SDS011;8655;57.106;-2.088;2023-06-14T02:22:08;2.50;;;2.30;;
17079;SDS011;8655;57.106;-2.088;2023-06-14T02:24:34;2.83;;;2.40;;
17079;SDS011;8655;57.106;-2.088;2023-06-14T02:27:01;2.67;;;2.47;;
17079;SDS011;8655;57.106;-2.088;2023-06-14T02:29:27;2.42;;;2.13;;
17079;SDS011;8655;57.106;-2.088;2023-06-14T02:31:52;2.58;;;2.38;;
17079;SDS011;8655;57.106;-2.088;2023-06-14T02:34:18;3.65;;;2.30;;
17079;SDS011;8655;57.106;-2.088;2023-06-14T02:36:45;2.65;;;2.30;;
17079;SDS011;8655;57.106;-2.088;2023-06-14T02:39:12;3.22;;;2.17;;
17079;SDS011;8655;57.106;-2.088;2023-06-14T02:41:38;2.50;;;2.30;;
17079;SDS011;8655;57.106;-2.088;2023-06-14T02:44:04;3.03;;;2.30;;
17079;SDS011;8655;57.106;-2.088;2023-06-14T02:46:31;3.15;;;2.53;;
17079;SDS011;8655;57.106;-2.088;2023-06-14T02:48:57;2.45;;;2.10;;
17079;SDS011;8655;57.106;-2.088;2023-06-14T02:51:22;2.50;;;2.10;;
17079;SDS011;8655;57.106;-2.088;2023-06-14T02:53:48;2.75;;;2.20;;
17079;SDS011;8655;57.106;-2.088;2023-06-14T02:56:14;2.70;;;2.20;;
17079;SDS011;8655;57.106;-2.088;2023-06-14T02:58:42;2.30;;;2.10;;
17079;SDS011;8655;57.106;-2.088;2023-06-14T03:01:08;2.50;;;2.30;;
17079;SDS011;8655;57.106;-2.088;2023-06-14T03:03:37;2.85;;;2.30;;
17079;SDS011;8655;57.106;-2.088;2023-06-14T03:06:03;2.42;;;2.22;;
17079;SDS011;8655;57.106;-2.088;2023-06-14T03:08:32;2.38;;;2.17;;
17079;SDS011;8655;57.106;-2.088;2023-06-14T03:11:03;2.60;;;2.40;;
17079;SDS011;8655;57.106;-2.088;2023-06-14T03:13:32;3.83;;;2.30;;
17079;SDS011;8655;57.106;-2.088;2023-06-14T03:16:02;2.65;;;2.25;;
17079;SDS011;8655;57.106;-2.088;2023-06-14T03:18:31;2.47;;;2.28;;
17079;SDS011;8655;57.106;-2.088;2023-06-14T03:21:00;4.43;;;2.35;;
17079;SDS011;8655;57.106;-2.088;2023-06-14T03:23:26;2.90;;;2.30;;
17079;SDS011;8655;57.106;-2.088;2023-06-14T03:25:52;2.55;;;2.35;;
17079;SDS011;8655;57.106;-2.088;2023-06-14T03:28:18;2.40;;;2.20;;
17079;SDS011;8655;57.106;-2.088;2023-06-14T03:30:43;2.53;;;2.33;;
17079;SDS011;8655;57.106;-2.088;2023-06-14T03:33:09;3.85;;;2.60;;
17079;SDS011;8655;57.106;-2.088;2023-06-14T03:35:35;2.45;;;2.17;;
17079;SDS011;8655;57.106;-2.088;2023-06-14T03:38:01;2.40;;;2.20;;
17079;SDS011;8655;57.106;-2.088;2023-06-14T03:40:28;2.55;;;2.35;;
17079;SDS011;8655;57.106;-2.088;2023-06-14T03:42:54;2.47;;;2.10;;
17079;SDS011;8655;57.106;-2.088;2023-06-14T03:45:20;3.15;;;2.17;;
17079;SDS011;8655;57.106;-2.088;2023-06-14T03:47:46;2.42;;;2.22;;
17079;SDS011;8655;57.106;-2.088;2023-06-14T03:50:12;2.80;;;2.40;;
17079;SDS011;8655;57.106;-2.088;2023-06-14T03:52:38;2.20;;;2.10;;
17079;SDS011;8655;57.106;-2.088;2023-06-14T03:55:05;2.35;;;2.15;;
17079;SDS011;8655;57.106;-2.088;2023-06-14T03:57:31;2.65;;;2.40;;
17079;SDS011;8655;57.106;-2.088;2023-06-14T03:59:56;2.65;;;2.20;;
17079;SDS011;8655;57.106;-2.088;2023-06-14T04:02:22;2.90;;;2.40;;
17079;SDS011;8655;57.106;-2.088;2023-06-14T04:04:48;3.55;;;2.45;;
17079;SDS011;8655;57.106;-2.088;2023-06-14T04:07:17;2.65;;;2.30;;
17079;SDS011;8655;57.106;-2.088;2023-06-14T04:09:45;3.78;;;2.63;;
17079;SDS011;8655;57.106;-2.088;2023-06-14T04:12:11;2.50;;;2.30;;
17079;SDS011;8655;57.106;-2.088;2023-06-14T04:14:37;2.50;;;2.30;;
17079;SDS011;8655;57.106;-2.088;2023-06-14T04:17:06;2.55;;;2.35;;
17079;SDS011;8655;57.106;-2.088;2023-06-14T04:19:32;3.40;;;2.33;;
17079;SDS011;8655;57.106;-2.088;2023-06-14T04:21:58;3.80;;;2.60;;
17079;SDS011;8655;57.106;-2.088;2023-06-14T04:24:26;2.83;;;2.63;;
17079;SDS011;8655;57.106;-2.088;2023-06-14T04:26:56;3.08;;;2.55;;
17079;SDS011;8655;57.106;-2.088;2023-06-14T04:29:26;2.67;;;2.33;;
17079;SDS011;8655;57.106;-2.088;2023-06-14T04:31:54;3.92;;;2.20;;
17079;SDS011;8655;57.106;-2.088;2023-06-14T04:34:24;2.47;;;2.17;;
17079;SDS011;8655;57.106;-2.088;2023-06-14T04:36:55;2.38;;;2.17;;
17079;SDS011;8655;57.106;-2.088;2023-06-14T04:39:21;4.38;;;2.50;;
17079;SDS011;8655;57.106;-2.088;2023-06-14T04:41:47;2.55;;;2.35;;
17079;SDS011;8655;57.106;-2.088;2023-06-14T04:44:17;2.50;;;2.17;;
17079;SDS011;8655;57.106;-2.088;2023-06-14T04:46:44;2.83;;;2.63;;
17079;SDS011;8655;57.106;-2.088;2023-06-14T04:49:14;3.55;;;2.45;;
17079;SDS011;8655;57.106;-2.088;2023-06-14T04:51:44;2.97;;;2.35;;
17079;SDS011;8655;57.106;-2.088;2023-06-14T04:54:11;2.50;;;2.30;;
17079;SDS011;8655;57.106;-2.088;2023-06-14T04:56:42;2.92;;;2.35;;
17079;SDS011;8655;57.106;-2.088;2023-06-14T04:59:08;3.55;;;2.47;;
17079;SDS011;8655;57.106;-2.088;2023-06-14T05:01:36;2.58;;;2.30;;
17079;SDS011;8655;57.106;-2.088;2023-06-14T05:04:02;2.50;;;2.30;;
17079;SDS011;8655;57.106;-2.088;2023-06-14T05:06:28;2.92;;;2.22;;
17079;SDS011;8655;57.106;-2.088;2023-06-14T05:08:55;3.60;;;2.33;;
17079;SDS011;8655;57.106;-2.088;2023-06-14T05:11:21;2.70;;;2.50;;
17079;SDS011;8655;57.106;-2.088;2023-06-14T05:13:49;2.47;;;2.13;;
17079;SDS011;8655;57.106;-2.088;2023-06-14T05:16:15;2.75;;;2.40;;
17079;SDS011;8655;57.106;-2.088;2023-06-14T05:18:44;2.72;;;2.30;;
17079;SDS011;8655;57.106;-2.088;2023-06-14T05:21:11;2.80;;;2.50;;
17079;SDS011;8655;57.106;-2.088;2023-06-14T05:23:36;2.72;;;2.40;;
17079;SDS011;8655;57.106;-2.088;2023-06-14T05:26:02;2.67;;;2.47;;
17079;SDS011;8655;57.106;-2.088;2023-06-14T05:28:29;3.40;;;2.60;;
17079;SDS011;8655;57.106;-2.088;2023-06-14T05:30:55;2.55;;;2.35;;
17079;SDS011;8655;57.106;-2.088;2023-06-14T05:33:21;3.03;;;2.50;;
17079;SDS011;8655;57.106;-2.088;2023-06-14T05:35:47;2.85;;;2.30;;
17079;SDS011;8655;57.106;-2.088;2023-06-14T05:38:12;2.88;;;2.45;;
17079;SDS011;8655;57.106;-2.088;2023-06-14T05:40:38;2.63;;;2.42;;
17079;SDS011;8655;57.106;-2.088;2023-06-14T05:43:04;3.47;;;2.38;;
17079;SDS011;8655;57.106;-2.088;2023-06-14T05:45:30;3.35;;;2.30;;
17079;SDS011;8655;57.106;-2.088;2023-06-14T05:47:56;2.95;;;2.47;;
17079;SDS011;8655;57.106;-2.088;2023-06-14T05:50:22;3.25;;;2.63;;
17079;SDS011;8655;57.106;-2.088;2023-06-14T05:52:47;3.08;;;2.75;;
17079;SDS011;8655;57.106;-2.088;2023-06-14T05:55:13;4.22;;;2.78;;
17079;SDS011;8655;57.106;-2.088;2023-06-14T05:57:41;3.05;;;2.50;;
17079;SDS011;8655;57.106;-2.088;2023-06-14T06:00:07;3.85;;;2.78;;
17079;SDS011;8655;57.106;-2.088;2023-06-14T06:02:36;3.75;;;2.80;;
17079;SDS011;8655;57.106;-2.088;2023-06-14T06:05:02;3.10;;;2.67;;
17079;SDS011;8655;57.106;-2.088;2023-06-14T06:07:28;2.88;;;2.60;;
17079;SDS011;8655;57.106;-2.088;2023-06-14T06:09:54;3.05;;;2.50;;
17079;SDS011;8655;57.106;-2.088;2023-06-14T06:12:19;3.45;;;2.45;;
17079;SDS011;8655;57.106;-2.088;2023-06-14T06:14:45;2.80;;;2.50;;
17079;SDS011;8655;57.106;-2.088;2023-06-14T06:17:11;3.17;;;2.53;;
17079;SDS011;8655;57.106;-2.088;2023-06-14T06:19:36;3.25;;;2.58;;
17079;SDS011;8655;57.106;-2.088;2023-06-14T06:22:02;2.65;;;2.33;;
17079;SDS011;8655;57.106;-2.088;2023-06-14T06:24:31;3.65;;;2.28;;
17079;SDS011;8655;57.106;-2.088;2023-06-14T06:26:57;4.00;;;2.35;;
17079;SDS011;8655;57.106;-2.088;2023-06-14T06:29:23;4.28;;;2.35;;
17079;SDS011;8655;57.106;-2.088;2023-06-14T06:31:48;4.80;;;2.58;;
17079;SDS011;8655;57.106;-2.088;2023-06-14T06:34:14;2.67;;;2.47;;
17079;SDS011;8655;57.106;-2.088;2023-06-14T06:36:40;2.67;;;2.40;;
17079;SDS011;8655;57.106;-2.088;2023-06-14T06:39:05;3.90;;;2.47;;
17079;SDS011;8655;57.106;-2.088;2023-06-14T06:41:35;2.97;;;2.63;;
17079;SDS011;8655;57.106;-2.088;2023-06-14T06:44:03;3.15;;;2.58;;
17079;SDS011;8655;57.106;-2.088;2023-06-14T06:46:28;3.35;;;2.75;;
17079;SDS011;8655;57.106;-2.088;2023-06-14T06:48:54;3.58;;;2.67;;
17079;SDS011;8655;57.106;-2.088;2023-06-14T06:51:20;4.72;;;2.63;;
17079;SDS011;8655;57.106;-2.088;2023-06-14T06:53:51;2.50;;;2.17;;
17079;SDS011;8655;57.106;-2.088;2023-06-14T06:56:18;3.20;;;2.38;;
17079;SDS011;8655;57.106;-2.088;2023-06-14T06:58:44;3.33;;;2.67;;
17079;SDS011;8655;57.106;-2.088;2023-06-14T07:01:10;3.13;;;2.50;;
17079;SDS011;8655;57.106;-2.088;2023-06-14T07:03:36;2.78;;;2.50;;
17079;SDS011;8655;57.106;-2.088;2023-06-14T07:06:02;2.78;;;2.47;;
17079;SDS011;8655;57.106;-2.088;2023-06-14T07:08:28;4.40;;;2.85;;
17079;SDS011;8655;57.106;-2.088;2023-06-14T07:10:54;2.90;;;2.42;;
17079;SDS011;8655;57.106;-2.088;2023-06-14T07:13:20;3.28;;;2.40;;
17079;SDS011;8655;57.106;-2.088;2023-06-14T07:15:46;3.35;;;2.33;;
17079;SDS011;8655;57.106;-2.088;2023-06-14T07:18:12;3.38;;;2.53;;
17079;SDS011;8655;57.106;-2.088;2023-06-14T07:20:38;3.47;;;2.45;;
17079;SDS011;8655;57.106;-2.088;2023-06-14T07:23:03;3.33;;;2.50;;
17079;SDS011;8655;57.106;-2.088;2023-06-14T07:25:30;3.13;;;2.35;;
17079;SDS011;8655;57.106;-2.088;2023-06-14T07:27:56;2.70;;;2.50;;
17079;SDS011;8655;57.106;-2.088;2023-06-14T07:30:22;5.72;;;2.78;;
17079;SDS011;8655;57.106;-2.088;2023-06-14T07:32:51;3.22;;;2.70;;
17079;SDS011;8655;57.106;-2.088;2023-06-14T07:35:18;4.43;;;2.72;;
17079;SDS011;8655;57.106;-2.088;2023-06-14T07:37:44;3.80;;;2.30;;
17079;SDS011;8655;57.106;-2.088;2023-06-14T07:40:11;4.93;;;2.40;;
17079;SDS011;8655;57.106;-2.088;2023-06-14T07:42:38;3.70;;;3.00;;
17079;SDS011;8655;57.106;-2.088;2023-06-14T07:45:04;3.40;;;2.63;;
17079;SDS011;8655;57.106;-2.088;2023-06-14T07:47:30;3.20;;;2.60;;
17079;SDS011;8655;57.106;-2.088;2023-06-14T07:49:56;2.92;;;2.45;;
17079;SDS011;8655;57.106;-2.088;2023-06-14T07:52:22;2.83;;;2.15;;
17079;SDS011;8655;57.106;-2.088;2023-06-14T07:54:48;3.60;;;2.40;;
17079;SDS011;8655;57.106;-2.088;2023-06-14T07:57:13;3.70;;;2.58;;
17079;SDS011;8655;57.106;-2.088;2023-06-14T07:59:39;3.42;;;2.80;;
17079;SDS011;8655;57.106;-2.088;2023-06-14T08:02:05;3.83;;;2.55;;
17079;SDS011;8655;57.106;-2.088;2023-06-14T08:04:31;5.03;;;2.80;;
17079;SDS011;8655;57.106;-2.088;2023-06-14T08:06:57;3.58;;;2.72;;
17079;SDS011;8655;57.106;-2.088;2023-06-14T08:09:24;3.67;;;2.72;;
17079;SDS011;8655;57.106;-2.088;2023-06-14T08:11:50;3.67;;;2.83;;
17079;SDS011;8655;57.106;-2.088;2023-06-14T08:14:16;3.53;;;2.65;;
17079;SDS011;8655;57.106;-2.088;2023-06-14T08:16:41;4.68;;;2.72;;
17079;SDS011;8655;57.106;-2.088;2023-06-14T08:19:07;3.90;;;2.85;;
17079;SDS011;8655;57.106;-2.088;2023-06-14T08:21:33;3.00;;;2.70;;
17079;SDS011;8655;57.106;-2.088;2023-06-14T08:24:01;3.53;;;2.72;;
17079;SDS011;8655;57.106;-2.088;2023-06-14T08:26:27;4.45;;;2.90;;
17079;SDS011;8655;57.106;-2.088;2023-06-14T08:28:57;5.65;;;3.05;;
17079;SDS011;8655;57.106;-2.088;2023-06-14T08:31:23;4.28;;;2.85;;
17079;SDS011;8655;57.106;-2.088;2023-06-14T08:33:50;3.25;;;2.95;;
17079;SDS011;8655;57.106;-2.088;2023-06-14T08:36:16;4.90;;;2.60;;
17079;SDS011;8655;57.106;-2.088;2023-06-14T08:38:41;3.95;;;2.92;;
17079;SDS011;8655;57.106;-2.088;2023-06-14T08:41:07;3.78;;;2.80;;
17079;SDS011;8655;57.106;-2.088;2023-06-14T08:43:38;4.85;;;3.13;;
17079;SDS011;8655;57.106;-2.088;2023-06-14T08:46:04;3.78;;;2.90;;
17079;SDS011;8655;57.106;-2.088;2023-06-14T08:48:33;3.80;;;2.42;;
17079;SDS011;8655;57.106;-2.088;2023-06-14T08:51:00;5.07;;;3.00;;
17079;SDS011;8655;57.106;-2.088;2023-06-14T08:53:32;4.18;;;2.65;;
17079;SDS011;8655;57.106;-2.088;2023-06-14T08:55:59;5.25;;;3.03;;
17079;SDS011;8655;57.106;-2.088;2023-06-14T08:58:27;4.38;;;2.72;;
17079;SDS011;8655;57.106;-2.088;2023-06-14T09:00:57;4.10;;;2.70;;
17079;SDS011;8655;57.106;-2.088;2023-06-14T09:03:23;2.83;;;2.50;;
17079;SDS011;8655;57.106;-2.088;2023-06-14T09:05:54;4.05;;;2.95;;
17079;SDS011;8655;57.106;-2.088;2023-06-14T09:08:21;4.20;;;2.70;;
17079;SDS011;8655;57.106;-2.088;2023-06-14T09:10:48;2.78;;;2.50;;
17079;SDS011;8655;57.106;-2.088;2023-06-14T09:13:14;6.00;;;3.00;;
17079;SDS011;8655;57.106;-2.088;2023-06-14T09:15:39;4.15;;;2.50;;
17079;SDS011;8655;57.106;-2.088;2023-06-14T09:18:05;3.38;;;2.78;;
17079;SDS011;8655;57.106;-2.088;2023-06-14T09:20:31;3.55;;;2.33;;
17079;SDS011;8655;57.106;-2.088;2023-06-14T09:22:58;3.92;;;2.90;;
17079;SDS011;8655;57.106;-2.088;2023-06-14T09:25:25;5.70;;;2.80;;
17079;SDS011;8655;57.106;-2.088;2023-06-14T09:27:52;3.92;;;2.85;;
17079;SDS011;8655;57.106;-2.088;2023-06-14T09:30:19;3.28;;;2.67;;
17079;SDS011;8655;57.106;-2.088;2023-06-14T09:32:45;4.55;;;2.67;;
17079;SDS011;8655;57.106;-2.088;2023-06-14T09:35:11;3.97;;;3.10;;
17079;SDS011;8655;57.106;-2.088;2023-06-14T09:37:37;3.67;;;2.60;;
17079;SDS011;8655;57.106;-2.088;2023-06-14T09:40:04;4.45;;;2.92;;
17079;SDS011;8655;57.106;-2.088;2023-06-14T09:42:32;4.15;;;2.90;;
17079;SDS011;8655;57.106;-2.088;2023-06-14T09:45:00;5.90;;;2.97;;
17079;SDS011;8655;57.106;-2.088;2023-06-14T09:47:28;5.82;;;2.75;;
17079;SDS011;8655;57.106;-2.088;2023-06-14T09:49:54;6.80;;;2.67;;
17079;SDS011;8655;57.106;-2.088;2023-06-14T09:52:21;4.18;;;2.90;;
17079;SDS011;8655;57.106;-2.088;2023-06-14T09:54:48;4.90;;;2.80;;
17079;SDS011;8655;57.106;-2.088;2023-06-14T09:57:15;3.47;;;2.70;;
17079;SDS011;8655;57.106;-2.088;2023-06-14T09:59:43;3.53;;;2.72;;
17079;SDS011;8655;57.106;-2.088;2023-06-14T10:05:07;3.53;;;3.00;;
17079;SDS011;8655;57.106;-2.088;2023-06-14T10:07:42;4.53;;;3.00;;
17079;SDS011;8655;57.106;-2.088;2023-06-14T10:10:13;4.18;;;2.72;;
17079;SDS011;8655;57.106;-2.088;2023-06-14T10:12:40;4.03;;;2.72;;
17079;SDS011;8655;57.106;-2.088;2023-06-14T10:15:07;4.32;;;2.92;;
17079;SDS011;8655;57.106;-2.088;2023-06-14T10:23:04;3.85;;;2.90;;
17079;SDS011;8655;57.106;-2.088;2023-06-14T10:25:35;2.72;;;2.53;;
17079;SDS011;8655;57.106;-2.088;2023-06-14T10:28:20;3.20;;;2.80;;
17079;SDS011;8655;57.106;-2.088;2023-06-14T10:33:33;3.00;;;2.60;;
17079;SDS011;8655;57.106;-2.088;2023-06-14T10:39:00;2.95;;;2.65;;
17079;SDS011;8655;57.106;-2.088;2023-06-14T10:41:29;6.97;;;3.05;;
17079;SDS011;8655;57.106;-2.088;2023-06-14T10:46:40;3.33;;;3.00;;
17079;SDS011;8655;57.106;-2.088;2023-06-14T10:49:11;5.65;;;2.92;;
17079;SDS011;8655;57.106;-2.088;2023-06-14T10:51:41;4.53;;;2.92;;
17079;SDS011;8655;57.106;-2.088;2023-06-14T10:54:14;7.10;;;2.90;;
17079;SDS011;8655;57.106;-2.088;2023-06-14T10:56:47;8.65;;;3.15;;
17079;SDS011;8655;57.106;-2.088;2023-06-14T10:59:17;5.18;;;3.05;;
17079;SDS011;8655;57.106;-2.088;2023-06-14T11:01:57;4.68;;;2.72;;
17079;SDS011;8655;57.106;-2.088;2023-06-14T11:04:49;7.30;;;3.28;;
17079;SDS011;8655;57.106;-2.088;2023-06-14T11:12:50;9.43;;;3.60;;
17079;SDS011;8655;57.106;-2.088;2023-06-14T11:15:20;6.15;;;3.28;;
17079;SDS011;8655;57.106;-2.088;2023-06-14T11:17:53;6.95;;;3.20;;
17079;SDS011;8655;57.106;-2.088;2023-06-14T11:20:24;6.85;;;3.10;;
17079;SDS011;8655;57.106;-2.088;2023-06-14T11:22:51;5.57;;;3.20;;
17079;SDS011;8655;57.106;-2.088;2023-06-14T11:25:18;6.80;;;3.33;;
17079;SDS011;8655;57.106;-2.088;2023-06-14T11:27:44;5.75;;;3.33;;
17079;SDS011;8655;57.106;-2.088;2023-06-14T11:30:10;6.53;;;3.53;;
17079;SDS011;8655;57.106;-2.088;2023-06-14T11:32:38;5.60;;;3.55;;
17079;SDS011;8655;57.106;-2.088;2023-06-14T11:35:04;5.80;;;3.30;;
17079;SDS011;8655;57.106;-2.088;2023-06-14T11:37:31;5.82;;;3.25;;
17079;SDS011;8655;57.106;-2.088;2023-06-14T11:40:02;4.13;;;3.00;;
17079;SDS011;8655;57.106;-2.088;2023-06-14T11:42:33;6.63;;;3.28;;
17079;SDS011;8655;57.106;-2.088;2023-06-14T11:44:59;7.15;;;3.30;;
17079;SDS011;8655;57.106;-2.088;2023-06-14T11:47:25;5.28;;;3.50;;
17079;SDS011;8655;57.106;-2.088;2023-06-14T11:50:00;4.40;;;3.40;;
17079;SDS011;8655;57.106;-2.088;2023-06-14T11:52:27;4.57;;;3.10;;
17079;SDS011;8655;57.106;-2.088;2023-06-14T11:54:53;8.50;;;3.45;;
17079;SDS011;8655;57.106;-2.088;2023-06-14T11:57:20;7.55;;;3.30;;
17079;SDS011;8655;57.106;-2.088;2023-06-14T11:59:46;7.40;;;3.30;;
17079;SDS011;8655;57.106;-2.088;2023-06-14T12:02:15;4.95;;;3.10;;
17079;SDS011;8655;57.106;-2.088;2023-06-14T12:04:42;6.13;;;3.22;;
17079;SDS011;8655;57.106;-2.088;2023-06-14T12:07:17;5.05;;;3.25;;
17079;SDS011;8655;57.106;-2.088;2023-06-14T12:12:22;4.22;;;3.42;;
17079;SDS011;8655;57.106;-2.088;2023-06-14T12:14:52;7.05;;;3.28;;
17079;SDS011;8655;57.106;-2.088;2023-06-14T12:17:21;4.65;;;3.30;;
17079;SDS011;8655;57.106;-2.088;2023-06-14T12:19:48;5.47;;;3.20;;
17079;SDS011;8655;57.106;-2.088;2023-06-14T12:22:15;5.25;;;3.28;;
17079;SDS011;8655;57.106;-2.088;2023-06-14T12:24:44;7.07;;;3.50;;
17079;SDS011;8655;57.106;-2.088;2023-06-14T12:27:11;6.32;;;3.60;;
17079;SDS011;8655;57.106;-2.088;2023-06-14T12:29:41;3.80;;;3.28;;
17079;SDS011;8655;57.106;-2.088;2023-06-14T12:32:10;4.30;;;3.40;;
17079;SDS011;8655;57.106;-2.088;2023-06-14T12:34:36;4.05;;;3.10;;
17079;SDS011;8655;57.106;-2.088;2023-06-14T12:37:02;5.88;;;3.35;;
17079;SDS011;8655;57.106;-2.088;2023-06-14T12:39:31;4.03;;;3.22;;
17079;SDS011;8655;57.106;-2.088;2023-06-14T12:41:57;5.78;;;3.35;;
17079;SDS011;8655;57.106;-2.088;2023-06-14T12:44:23;3.67;;;3.13;;
17079;SDS011;8655;57.106;-2.088;2023-06-14T12:46:49;5.20;;;3.28;;
17079;SDS011;8655;57.106;-2.088;2023-06-14T12:49:16;5.68;;;3.10;;
17079;SDS011;8655;57.106;-2.088;2023-06-14T12:51:42;6.65;;;3.47;;
17079;SDS011;8655;57.106;-2.088;2023-06-14T12:54:08;6.45;;;3.55;;
17079;SDS011;8655;57.106;-2.088;2023-06-14T12:56:34;5.00;;;2.90;;
17079;SDS011;8655;57.106;-2.088;2023-06-14T12:59:00;6.28;;;3.30;;
17079;SDS011;8655;57.106;-2.088;2023-06-14T13:01:25;7.05;;;3.20;;
17079;SDS011;8655;57.106;-2.088;2023-06-14T13:03:51;5.43;;;3.50;;
17079;SDS011;8655;57.106;-2.088;2023-06-14T13:06:20;4.13;;;3.20;;
17079;SDS011;8655;57.106;-2.088;2023-06-14T13:08:47;6.55;;;3.10;;
17079;SDS011;8655;57.106;-2.088;2023-06-14T13:11:13;4.38;;;3.15;;
17079;SDS011;8655;57.106;-2.088;2023-06-14T13:13:39;6.22;;;3.40;;
17079;SDS011;8655;57.106;-2.088;2023-06-14T13:16:05;4.05;;;2.90;;
17079;SDS011;8655;57.106;-2.088;2023-06-14T13:18:31;5.82;;;3.20;;
17079;SDS011;8655;57.106;-2.088;2023-06-14T13:20:56;4.05;;;2.90;;
17079;SDS011;8655;57.106;-2.088;2023-06-14T13:23:22;3.67;;;2.88;;
17079;SDS011;8655;57.106;-2.088;2023-06-14T13:25:48;4.57;;;3.05;;
17079;SDS011;8655;57.106;-2.088;2023-06-14T13:28:16;3.15;;;2.80;;
17079;SDS011;8655;57.106;-2.088;2023-06-14T13:30:41;5.65;;;3.25;;
17079;SDS011;8655;57.106;-2.088;2023-06-14T13:33:07;3.55;;;2.97;;
17079;SDS011;8655;57.106;-2.088;2023-06-14T13:35:33;4.30;;;2.83;;
17079;SDS011;8655;57.106;-2.088;2023-06-14T13:37:59;3.83;;;2.75;;
17079;SDS011;8655;57.106;-2.088;2023-06-14T13:40:25;3.97;;;2.88;;
17079;SDS011;8655;57.106;-2.088;2023-06-14T13:42:51;5.30;;;3.10;;
17079;SDS011;8655;57.106;-2.088;2023-06-14T13:45:17;5.55;;;3.28;;
17079;SDS011;8655;57.106;-2.088;2023-06-14T13:47:42;4.75;;;3.10;;
17079;SDS011;8655;57.106;-2.088;2023-06-14T13:50:09;4.22;;;3.03;;
17079;SDS011;8655;57.106;-2.088;2023-06-14T13:52:35;5.20;;;2.70;;
17079;SDS011;8655;57.106;-2.088;2023-06-14T13:55:00;3.50;;;3.15;;
17079;SDS011;8655;57.106;-2.088;2023-06-14T13:57:26;4.38;;;2.88;;
17079;SDS011;8655;57.106;-2.088;2023-06-14T13:59:52;3.28;;;2.63;;
17079;SDS011;8655;57.106;-2.088;2023-06-14T14:02:20;3.30;;;2.80;;
17079;SDS011;8655;57.106;-2.088;2023-06-14T14:04:46;3.08;;;2.60;;
17079;SDS011;8655;57.106;-2.088;2023-06-14T14:07:18;4.90;;;2.80;;
17079;SDS011;8655;57.106;-2.088;2023-06-14T14:09:45;3.50;;;2.85;;
17079;SDS011;8655;57.106;-2.088;2023-06-14T14:12:12;5.32;;;2.80;;
17079;SDS011;8655;57.106;-2.088;2023-06-14T14:14:39;5.03;;;3.00;;
17079;SDS011;8655;57.106;-2.088;2023-06-14T14:17:05;4.80;;;3.20;;
17079;SDS011;8655;57.106;-2.088;2023-06-14T14:19:31;4.55;;;2.40;;
17079;SDS011;8655;57.106;-2.088;2023-06-14T14:21:57;4.55;;;2.78;;
17079;SDS011;8655;57.106;-2.088;2023-06-14T14:24:23;3.88;;;2.88;;
17079;SDS011;8655;57.106;-2.088;2023-06-14T14:26:49;4.70;;;3.10;;
17079;SDS011;8655;57.106;-2.088;2023-06-14T14:29:15;5.13;;;2.70;;
17079;SDS011;8655;57.106;-2.088;2023-06-14T14:31:41;4.47;;;2.92;;
17079;SDS011;8655;57.106;-2.088;2023-06-14T14:34:07;5.65;;;2.70;;
17079;SDS011;8655;57.106;-2.088;2023-06-14T14:36:33;5.03;;;2.80;;
17079;SDS011;8655;57.106;-2.088;2023-06-14T14:39:02;4.10;;;2.80;;
17079;SDS011;8655;57.106;-2.088;2023-06-14T14:41:32;3.38;;;2.75;;
17079;SDS011;8655;57.106;-2.088;2023-06-14T14:43:58;4.82;;;2.50;;
17079;SDS011;8655;57.106;-2.088;2023-06-14T14:46:25;4.90;;;2.78;;
17079;SDS011;8655;57.106;-2.088;2023-06-14T14:48:52;3.38;;;2.55;;
17079;SDS011;8655;57.106;-2.088;2023-06-14T14:51:18;4.25;;;2.70;;
17079;SDS011;8655;57.106;-2.088;2023-06-14T14:53:44;4.03;;;2.88;;
17079;SDS011;8655;57.106;-2.088;2023-06-14T14:56:10;2.70;;;2.38;;
17079;SDS011;8655;57.106;-2.088;2023-06-14T14:58:37;6.95;;;2.90;;
17079;SDS011;8655;57.106;-2.088;2023-06-14T15:01:02;4.10;;;2.83;;
17079;SDS011;8655;57.106;-2.088;2023-06-14T15:03:30;3.95;;;2.53;;
17079;SDS011;8655;57.106;-2.088;2023-06-14T15:05:56;3.47;;;2.45;;
17079;SDS011;8655;57.106;-2.088;2023-06-14T15:08:21;5.15;;;3.00;;
17079;SDS011;8655;57.106;-2.088;2023-06-14T15:10:47;3.58;;;2.38;;
17079;SDS011;8655;57.106;-2.088;2023-06-14T15:13:13;3.03;;;2.30;;
17079;SDS011;8655;57.106;-2.088;2023-06-14T15:15:39;2.70;;;2.50;;
17079;SDS011;8655;57.106;-2.088;2023-06-14T15:18:05;2.70;;;2.33;;
17079;SDS011;8655;57.106;-2.088;2023-06-14T15:20:30;4.47;;;2.90;;